Time;durP1;ratioP1;P1;durP2;ratioP2;P2;SDS_P1;SDS_P2;PMS_P1;PMS_P2;Temp;Humidity;BMP_temperature;BMP_pressure;BME280_temperature;BME280_humidity;BME280_pressure;Samples;Min_cycle;Max_cycle;Signal;HPM_P1;HPM_P2
2021/06/18 00:02:24;;;;;;;9.38;4.88;;;;;;;;;;5050205;28;20053;-67
2021/06/18 00:04:51;;;;;;;9.75;5.00;;;;;;;;;;5035118;28;20398;-67
2021/06/18 00:07:17;;;;;;;12.00;6.40;;;;;;;;;;5035368;28;20104;-68
2021/06/18 00:09:43;;;;;;;12.40;5.80;;;;;;;;;;5035387;28;20021;-67
2021/06/18 00:12:10;;;;;;;10.48;6.15;;;;;;;;;;5050316;28;20033;-67
2021/06/18 00:14:36;;;;;;;7.70;4.53;;;;;;;;;;5035556;28;20116;-68
2021/06/18 00:17:03;;;;;;;10.02;5.28;;;;;;;;;;5050219;28;20030;-67
2021/06/18 00:19:29;;;;;;;10.43;5.50;;;;;;;;;;5035414;28;20029;-68
2021/06/18 00:21:55;;;;;;;9.10;5.45;;;;;;;;;;5034746;28;20028;-68
2021/06/18 00:24:21;;;;;;;9.00;5.50;;;;;;;;;;5034717;28;20542;-68
2021/06/18 00:26:48;;;;;;;10.88;6.10;;;;;;;;;;5034992;28;20036;-68
2021/06/18 00:29:14;;;;;;;10.55;5.60;;;;;;;;;;5034937;28;20033;-68
2021/06/18 00:31:40;;;;;;;10.55;5.88;;;;;;;;;;5034987;28;20440;-69
2021/06/18 00:34:06;;;;;;;10.57;5.85;;;;;;;;;;5050205;28;20026;-68
2021/06/18 00:36:33;;;;;;;13.00;5.93;;;;;;;;;;5034863;28;20030;-69
2021/06/18 00:38:59;;;;;;;9.65;5.85;;;;;;;;;;5034475;28;20440;-68
2021/06/18 00:41:25;;;;;;;8.05;5.38;;;;;;;;;;5034805;28;20167;-69
2021/06/18 00:43:54;;;;;;;9.48;4.32;;;;;;;;;;5034364;28;20397;-66
2021/06/18 00:46:21;;;;;;;13.43;5.22;;;;;;;;;;5034655;28;20070;-67
2021/06/18 00:48:48;;;;;;;11.13;5.50;;;;;;;;;;5034626;28;20143;-68
2021/06/18 00:51:14;;;;;;;8.82;5.70;;;;;;;;;;5049931;28;20025;-68
2021/06/18 00:53:40;;;;;;;9.48;5.60;;;;;;;;;;5049792;28;20026;-68
2021/06/18 00:56:07;;;;;;;10.77;4.90;;;;;;;;;;5049731;28;20032;-67
2021/06/18 00:58:33;;;;;;;12.90;5.20;;;;;;;;;;5049731;28;20021;-68
2021/06/18 01:00:59;;;;;;;11.90;5.65;;;;;;;;;;5013896;28;20434;-69
2021/06/18 01:03:25;;;;;;;11.15;5.90;;;;;;;;;;5014458;28;20549;-67
2021/06/18 01:05:52;;;;;;;7.35;4.95;;;;;;;;;;5014442;28;20534;-68
2021/06/18 01:08:18;;;;;;;9.77;6.03;;;;;;;;;;5013124;28;20076;-68
2021/06/18 01:11:03;;;;;;;13.07;5.85;;;;;;;;;;5014103;28;20386;-68
2021/06/18 01:13:38;;;;;;;9.88;6.10;;;;;;;;;;5014380;28;20034;-69
2021/06/18 01:16:08;;;;;;;11.32;5.57;;;;;;;;;;5013040;28;20030;-71
2021/06/18 01:18:39;;;;;;;7.18;5.32;;;;;;;;;;5014012;28;20021;-68
2021/06/18 01:21:05;;;;;;;8.13;4.90;;;;;;;;;;5014323;28;20026;-69
2021/06/18 01:23:45;;;;;;;6.88;4.78;;;;;;;;;;5014115;28;20100;-70
2021/06/18 01:26:32;;;;;;;6.47;4.88;;;;;;;;;;5014190;28;20026;-70
2021/06/18 01:28:59;;;;;;;8.23;5.32;;;;;;;;;;5012875;28;20026;-69
2021/06/18 01:31:30;;;;;;;7.25;5.18;;;;;;;;;;5012853;28;20053;-69
2021/06/18 01:34:02;;;;;;;9.02;6.20;;;;;;;;;;5014083;28;20436;-69
2021/06/18 01:36:30;;;;;;;11.63;6.60;;;;;;;;;;5013621;28;20022;-69
2021/06/18 01:38:58;;;;;;;14.60;7.15;;;;;;;;;;5013941;28;20033;-69
2021/06/18 01:41:27;;;;;;;9.43;6.18;;;;;;;;;;5013975;28;20021;-69
2021/06/18 01:43:54;;;;;;;10.30;6.55;;;;;;;;;;5013748;28;20041;-67
2021/06/18 01:46:23;;;;;;;11.25;6.43;;;;;;;;;;5012477;28;20524;-69
2021/06/18 01:48:51;;;;;;;11.75;6.25;;;;;;;;;;5013689;28;20026;-68
2021/06/18 01:51:18;;;;;;;12.77;6.28;;;;;;;;;;5013817;28;20041;-70
2021/06/18 01:53:46;;;;;;;14.48;6.43;;;;;;;;;;5012422;28;20022;-69
2021/06/18 01:56:15;;;;;;;10.80;6.15;;;;;;;;;;5013381;28;20109;-67
2021/06/18 01:58:42;;;;;;;7.35;6.13;;;;;;;;;;5012321;28;20025;-67
2021/06/18 02:01:09;;;;;;;9.95;6.40;;;;;;;;;;5013342;28;20510;-67
2021/06/18 02:03:36;;;;;;;9.13;5.75;;;;;;;;;;5012257;28;20036;-67
2021/06/18 02:06:04;;;;;;;11.20;5.10;;;;;;;;;;5013559;28;20026;-67
2021/06/18 02:08:31;;;;;;;6.38;4.78;;;;;;;;;;5013507;28;20029;-67
2021/06/18 02:10:58;;;;;;;5.68;4.32;;;;;;;;;;5013539;28;20100;-68
2021/06/18 02:13:27;;;;;;;6.57;5.28;;;;;;;;;;5013490;28;20160;-67
2021/06/18 02:15:54;;;;;;;9.93;5.63;;;;;;;;;;5013473;28;20022;-67
2021/06/18 02:18:22;;;;;;;11.80;5.35;;;;;;;;;;5012056;28;20108;-66
2021/06/18 02:20:51;;;;;;;11.18;6.53;;;;;;;;;;5012141;28;20018;-67
2021/06/18 02:23:18;;;;;;;12.38;5.68;;;;;;;;;;5012074;28;20385;-68
2021/06/18 02:25:45;;;;;;;11.60;5.57;;;;;;;;;;5013352;28;20026;-67
2021/06/18 02:28:11;;;;;;;13.18;5.93;;;;;;;;;;5011994;28;20117;-67
2021/06/18 02:30:38;;;;;;;12.75;5.72;;;;;;;;;;5012013;28;20029;-69
2021/06/18 02:33:11;;;;;;;10.90;5.65;;;;;;;;;;5013250;28;20026;-68
2021/06/18 02:35:37;;;;;;;10.43;5.85;;;;;;;;;;5013285;28;20029;-69
2021/06/18 02:38:03;;;;;;;14.98;6.53;;;;;;;;;;5013203;28;20068;-67
2021/06/18 02:40:30;;;;;;;12.23;6.68;;;;;;;;;;5011856;28;20022;-68
2021/06/18 02:42:56;;;;;;;9.00;7.35;;;;;;;;;;5011898;28;20103;-68
2021/06/18 02:45:22;;;;;;;10.25;6.38;;;;;;;;;;5012854;28;20065;-68
2021/06/18 02:48:00;;;;;;;13.02;6.20;;;;;;;;;;5017008;28;20026;-68
2021/06/18 02:50:27;;;;;;;11.32;6.63;;;;;;;;;;5017013;28;20022;-67
2021/06/18 02:52:56;;;;;;;11.27;6.00;;;;;;;;;;5015732;28;20117;-67
2021/06/18 02:55:24;;;;;;;15.18;6.35;;;;;;;;;;5016954;28;20049;-68
2021/06/18 02:57:50;;;;;;;11.05;6.03;;;;;;;;;;5016918;28;20046;-66
2021/06/18 03:00:18;;;;;;;12.52;6.43;;;;;;;;;;5017119;28;20454;-67
2021/06/18 03:02:53;;;;;;;11.52;7.18;;;;;;;;;;5016411;28;20053;-68
2021/06/18 03:05:21;;;;;;;13.82;7.38;;;;;;;;;;5016779;28;20026;-67
2021/06/18 03:07:52;;;;;;;10.65;6.28;;;;;;;;;;5016747;28;20029;-67
2021/06/18 03:10:24;;;;;;;15.00;6.28;;;;;;;;;;5016817;28;20054;-67
2021/06/18 03:12:51;;;;;;;14.15;6.25;;;;;;;;;;5015343;28;20022;-67
2021/06/18 03:15:19;;;;;;;8.30;5.78;;;;;;;;;;5016554;28;20459;-67
2021/06/18 03:17:45;;;;;;;11.70;7.00;;;;;;;;;;5016572;28;20033;-66
2021/06/18 03:20:18;;;;;;;8.57;5.97;;;;;;;;;;5016767;28;20107;-66
2021/06/18 03:22:45;;;;;;;9.07;6.88;;;;;;;;;;5016428;28;20101;-66
2021/06/18 03:25:12;;;;;;;13.38;6.82;;;;;;;;;;5016636;28;20028;-66
2021/06/18 03:27:39;;;;;;;15.35;6.07;;;;;;;;;;5016363;28;20022;-67
2021/06/18 03:30:06;;;;;;;9.18;5.55;;;;;;;;;;5014974;28;20030;-67
2021/06/18 03:32:34;;;;;;;11.25;6.05;;;;;;;;;;5016363;28;20076;-68
2021/06/18 03:35:01;;;;;;;15.75;7.00;;;;;;;;;;5016209;28;20018;-68
2021/06/18 03:37:27;;;;;;;13.10;8.30;;;;;;;;;;4998474;28;20073;-67
2021/06/18 03:39:54;;;;;;;12.27;8.15;;;;;;;;;;5016072;28;20113;-67
2021/06/18 03:42:21;;;;;;;16.98;8.35;;;;;;;;;;5014724;28;20034;-68
2021/06/18 03:44:49;;;;;;;13.57;8.13;;;;;;;;;;5016319;28;20109;-66
2021/06/18 03:47:15;;;;;;;16.08;8.20;;;;;;;;;;5015976;28;20044;-66
2021/06/18 03:49:45;;;;;;;14.07;7.72;;;;;;;;;;5015633;28;20065;-68
2021/06/18 03:52:11;;;;;;;11.95;7.88;;;;;;;;;;5016196;28;20071;-66
2021/06/18 03:54:38;;;;;;;12.73;7.00;;;;;;;;;;5014533;28;20026;-67
2021/06/18 03:57:06;;;;;;;11.40;7.65;;;;;;;;;;5015615;28;20370;-68
2021/06/18 03:59:33;;;;;;;12.40;7.13;;;;;;;;;;5015354;28;20100;-68
2021/06/18 04:01:59;;;;;;;12.50;7.25;;;;;;;;;;5015595;28;20060;-68
2021/06/18 04:04:27;;;;;;;18.20;8.43;;;;;;;;;;5015622;28;20038;-64
2021/06/18 04:06:53;;;;;;;16.10;7.90;;;;;;;;;;5014396;28;20108;-65
2021/06/18 04:09:20;;;;;;;15.43;7.53;;;;;;;;;;5015551;28;20018;-65
2021/06/18 04:11:46;;;;;;;15.63;7.88;;;;;;;;;;5014272;28;20031;-65
2021/06/18 04:14:13;;;;;;;16.70;7.80;;;;;;;;;;5014175;28;20021;-64
2021/06/18 04:16:40;;;;;;;11.80;7.28;;;;;;;;;;5015479;28;20081;-65
2021/06/18 04:19:10;;;;;;;14.10;7.13;;;;;;;;;;5015390;28;20022;-65
2021/06/18 04:21:37;;;;;;;15.10;6.60;;;;;;;;;;5015447;28;20469;-65
2021/06/18 04:24:04;;;;;;;12.88;7.30;;;;;;;;;;5015247;28;20037;-65
2021/06/18 04:26:30;;;;;;;14.68;6.70;;;;;;;;;;5015542;28;20113;-66
2021/06/18 04:28:56;;;;;;;12.05;7.57;;;;;;;;;;5015202;28;20026;-67
2021/06/18 04:31:22;;;;;;;12.20;7.90;;;;;;;;;;5015131;28;20470;-66
2021/06/18 04:33:49;;;;;;;17.45;8.35;;;;;;;;;;5015468;28;20109;-65
2021/06/18 04:36:15;;;;;;;10.50;7.60;;;;;;;;;;5015104;28;20026;-69
2021/06/18 04:38:41;;;;;;;14.85;8.40;;;;;;;;;;5014738;28;20482;-68
2021/06/18 04:41:07;;;;;;;10.65;7.63;;;;;;;;;;5013670;28;20022;-68
2021/06/18 04:43:34;;;;;;;10.40;7.55;;;;;;;;;;5014923;28;20493;-67
2021/06/18 04:46:00;;;;;;;11.38;7.15;;;;;;;;;;5013545;28;20088;-68
2021/06/18 04:48:28;;;;;;;13.80;7.63;;;;;;;;;;5014868;28;20117;-66
2021/06/18 04:50:54;;;;;;;14.00;6.80;;;;;;;;;;5013464;28;20542;-66
2021/06/18 04:53:20;;;;;;;9.02;7.18;;;;;;;;;;5014523;28;20542;-67
2021/06/18 04:55:47;;;;;;;10.80;6.82;;;;;;;;;;5013425;28;20034;-66
2021/06/18 04:58:14;;;;;;;10.02;7.53;;;;;;;;;;5014902;28;20114;-64
2021/06/18 05:00:41;;;;;;;10.90;7.90;;;;;;;;;;5013295;28;20034;-65
2021/06/18 05:03:07;;;;;;;17.63;7.70;;;;;;;;;;5014617;28;20050;-66
2021/06/18 05:05:33;;;;;;;21.17;7.30;;;;;;;;;;5014598;28;20030;-65
2021/06/18 05:08:00;;;;;;;9.88;6.53;;;;;;;;;;5014201;28;20109;-67
2021/06/18 05:10:26;;;;;;;11.13;6.05;;;;;;;;;;5013446;28;20030;-66
2021/06/18 05:12:53;;;;;;;15.43;7.20;;;;;;;;;;5014459;28;20026;-67
2021/06/18 05:15:19;;;;;;;11.57;6.80;;;;;;;;;;5014339;28;20085;-65
2021/06/18 05:17:46;;;;;;;10.45;6.47;;;;;;;;;;5014319;28;20033;-65
2021/06/18 05:20:13;;;;;;;10.65;6.53;;;;;;;;;;5014259;28;20109;-65
2021/06/18 05:22:39;;;;;;;8.65;6.15;;;;;;;;;;5014201;28;20032;-63
2021/06/18 05:25:06;;;;;;;10.43;6.22;;;;;;;;;;5012472;28;20108;-64
2021/06/18 05:27:32;;;;;;;7.80;5.55;;;;;;;;;;5012821;28;20026;-65
2021/06/18 05:29:58;;;;;;;7.53;5.38;;;;;;;;;;5014122;28;20084;-64
2021/06/18 05:32:24;;;;;;;10.00;6.07;;;;;;;;;;5013740;28;20556;-69
2021/06/18 05:34:51;;;;;;;10.48;6.38;;;;;;;;;;5013992;28;20108;-70
2021/06/18 05:37:17;;;;;;;11.27;6.55;;;;;;;;;;5014408;28;20050;-67
2021/06/18 05:39:43;;;;;;;11.57;6.75;;;;;;;;;;5013884;28;20026;-69
2021/06/18 05:42:12;;;;;;;7.07;6.38;;;;;;;;;;5012547;28;20574;-70
2021/06/18 05:44:38;;;;;;;7.18;5.57;;;;;;;;;;5013544;28;20490;-69
2021/06/18 05:47:05;;;;;;;8.13;6.05;;;;;;;;;;5013954;28;20109;-70
2021/06/18 05:49:31;;;;;;;14.50;5.75;;;;;;;;;;5013824;28;20029;-70
2021/06/18 05:51:57;;;;;;;6.93;5.35;;;;;;;;;;5013696;28;20022;-68
2021/06/18 05:54:25;;;;;;;11.10;5.50;;;;;;;;;;5013584;28;20022;-69
2021/06/18 05:56:51;;;;;;;7.15;5.38;;;;;;;;;;5013600;28;20026;-70
2021/06/18 05:59:17;;;;;;;12.10;5.88;;;;;;;;;;5012237;28;20478;-69
2021/06/18 06:01:44;;;;;;;8.52;5.22;;;;;;;;;;5013243;28;20137;-70
2021/06/18 06:04:10;;;;;;;11.13;6.22;;;;;;;;;;5012109;28;20497;-69
2021/06/18 06:06:36;;;;;;;9.95;5.97;;;;;;;;;;5013518;28;20109;-67
2021/06/18 06:09:03;;;;;;;11.38;6.25;;;;;;;;;;5013527;28;20022;-65
2021/06/18 06:11:30;;;;;;;10.60;5.32;;;;;;;;;;5013415;28;20022;-69
2021/06/18 06:13:59;;;;;;;7.63;5.25;;;;;;;;;;5013307;28;20026;-68
2021/06/18 06:16:26;;;;;;;10.25;5.70;;;;;;;;;;5013362;28;20018;-70
2021/06/18 06:18:52;;;;;;;8.65;4.55;;;;;;;;;;5013106;28;20037;-69
2021/06/18 06:21:18;;;;;;;7.45;5.57;;;;;;;;;;5012316;28;20108;-67
2021/06/18 06:23:51;;;;;;;12.35;5.30;;;;;;;;;;5012278;28;20030;-69
2021/06/18 06:26:19;;;;;;;14.38;7.25;;;;;;;;;;5028550;28;20377;-67
2021/06/18 06:28:45;;;;;;;8.98;5.40;;;;;;;;;;5028424;28;20022;-67
2021/06/18 06:31:15;;;;;;;6.97;5.43;;;;;;;;;;5028173;28;20132;-69
2021/06/18 06:33:42;;;;;;;;;;;;;;;;;;5013214;28;20030;-66
2021/06/18 06:36:09;;;;;;;11.10;5.85;;;;;;;;;;5013094;28;19906;-68
2021/06/18 06:38:35;;;;;;;8.23;5.65;;;;;;;;;;5012372;28;20023;-69
2021/06/18 06:41:01;;;;;;;8.77;5.95;;;;;;;;;;5011784;28;20037;-69
2021/06/18 06:43:27;;;;;;;13.13;6.93;;;;;;;;;;5013044;28;20037;-68
2021/06/18 06:45:54;;;;;;;8.05;5.93;;;;;;;;;;5013108;28;20030;-68
2021/06/18 06:48:20;;;;;;;11.35;6.20;;;;;;;;;;5028242;28;20637;-68
2021/06/18 06:50:47;;;;;;;11.65;6.47;;;;;;;;;;5028238;28;20465;-68
2021/06/18 06:53:14;;;;;;;11.57;6.28;;;;;;;;;;5013100;28;20389;-67
2021/06/18 06:55:40;;;;;;;16.02;6.55;;;;;;;;;;5028113;28;20121;-69
2021/06/18 06:58:06;;;;;;;8.75;6.03;;;;;;;;;;5012781;28;20383;-71
2021/06/18 07:00:33;;;;;;;9.40;5.95;;;;;;;;;;5012952;28;20033;-72
2021/06/18 07:02:59;;;;;;;7.68;5.60;;;;;;;;;;5012486;28;20050;-69
2021/06/18 07:05:25;;;;;;;7.40;5.95;;;;;;;;;;5012830;28;20037;-69
2021/06/18 07:07:52;;;;;;;15.25;6.90;;;;;;;;;;5012092;28;20105;-69
2021/06/18 07:10:18;;;;;;;9.80;6.13;;;;;;;;;;5011511;28;20033;-69
2021/06/18 07:12:44;;;;;;;10.32;5.63;;;;;;;;;;5012380;28;20025;-69
2021/06/18 07:15:11;;;;;;;7.82;6.10;;;;;;;;;;5027339;28;20449;-69
2021/06/18 07:17:37;;;;;;;7.07;5.63;;;;;;;;;;5027924;28;20438;-69
2021/06/18 07:20:04;;;;;;;12.32;6.28;;;;;;;;;;5027931;28;20049;-68
2021/06/18 07:22:30;;;;;;;12.40;6.53;;;;;;;;;;5027796;28;20033;-69
2021/06/18 07:24:57;;;;;;;6.82;5.65;;;;;;;;;;5012732;28;20441;-69
2021/06/18 07:27:24;;;;;;;6.90;5.63;;;;;;;;;;5012907;28;20104;-68
2021/06/18 07:29:52;;;;;;;7.22;6.53;;;;;;;;;;5027743;28;20121;-68
2021/06/18 07:32:18;;;;;;;10.23;5.60;;;;;;;;;;5012544;28;20022;-70
2021/06/18 07:34:45;;;;;;;9.30;5.93;;;;;;;;;;5016055;28;20108;-70
2021/06/18 07:37:11;;;;;;;8.73;5.85;;;;;;;;;;5015710;28;20068;-68
2021/06/18 07:39:37;;;;;;;7.00;5.60;;;;;;;;;;5031325;28;20120;-70
2021/06/18 07:42:04;;;;;;;8.77;5.15;;;;;;;;;;5031062;28;20470;-68
2021/06/18 07:44:31;;;;;;;6.10;5.50;;;;;;;;;;5019251;28;20029;-70
2021/06/18 07:46:57;;;;;;;7.93;5.07;;;;;;;;;;5041925;28;20041;-73
2021/06/18 07:49:24;;;;;;;11.65;5.60;;;;;;;;;;5035355;28;20389;-71
2021/06/18 07:51:50;;;;;;;7.47;5.07;;;;;;;;;;5035727;28;20025;-71
2021/06/18 07:54:16;;;;;;;10.43;6.03;;;;;;;;;;5051053;28;20049;-68
2021/06/18 07:56:45;;;;;;;10.05;5.07;;;;;;;;;;5042478;28;20018;-70
2021/06/18 07:59:12;;;;;;;11.55;6.05;;;;;;;;;;5042764;28;20120;-69
2021/06/18 08:01:38;;;;;;;9.25;5.93;;;;;;;;;;5015559;28;20124;-67
2021/06/18 08:04:05;;;;;;;9.38;5.88;;;;;;;;;;5015615;28;20104;-69
2021/06/18 08:06:31;;;;;;;10.95;5.65;;;;;;;;;;5015840;28;20129;-69
2021/06/18 08:08:57;;;;;;;11.50;5.30;;;;;;;;;;5015172;28;20053;-67
2021/06/18 08:11:23;;;;;;;10.57;5.53;;;;;;;;;;5015315;28;20144;-66
2021/06/18 08:13:50;;;;;;;28.63;7.82;;;;;;;;;;5015398;28;20036;-68
2021/06/18 08:16:16;;;;;;;11.23;5.38;;;;;;;;;;5015301;28;20034;-68
2021/06/18 08:18:42;;;;;;;36.70;9.43;;;;;;;;;;5030391;28;20037;-69
2021/06/18 08:21:09;;;;;;;12.82;5.55;;;;;;;;;;5035240;28;20052;-69
2021/06/18 08:23:36;;;;;;;14.02;5.40;;;;;;;;;;5033163;28;20026;-69
2021/06/18 08:26:02;;;;;;;7.72;4.78;;;;;;;;;;5048733;28;20478;-70
2021/06/18 08:28:28;;;;;;;5.18;4.57;;;;;;;;;;5049327;28;20462;-68
2021/06/18 08:30:54;;;;;;;210.20;43.63;;;;;;;;;;5049586;28;20030;-69
2021/06/18 08:33:21;;;;;;;10.57;5.07;;;;;;;;;;5034425;28;20087;-70
2021/06/18 08:35:48;;;;;;;6.40;4.63;;;;;;;;;;5034499;28;20026;-68
2021/06/18 08:38:14;;;;;;;5.60;4.32;;;;;;;;;;5034605;28;20075;-69
2021/06/18 08:40:40;;;;;;;6.80;4.80;;;;;;;;;;5034741;28;20018;-69
2021/06/18 08:43:07;;;;;;;6.47;4.60;;;;;;;;;;5049818;28;20033;-71
2021/06/18 08:45:33;;;;;;;9.40;4.13;;;;;;;;;;5034415;28;20428;-69
2021/06/18 08:47:59;;;;;;;10.38;4.32;;;;;;;;;;5032013;28;20100;-68
2021/06/18 08:50:26;;;;;;;4.80;4.30;;;;;;;;;;5034277;28;20402;-70
2021/06/18 08:52:53;;;;;;;6.70;4.57;;;;;;;;;;5049698;28;20061;-68
2021/06/18 08:55:20;;;;;;;6.55;4.32;;;;;;;;;;5034511;28;20029;-69
2021/06/18 08:57:50;;;;;;;5.57;3.45;;;;;;;;;;5049740;28;20493;-70
2021/06/18 09:00:21;;;;;;;16.42;4.78;;;;;;;;;;5034380;28;20068;-68
2021/06/18 09:02:47;;;;;;;19.23;6.00;;;;;;;;;;5034229;28;20140;-69
2021/06/18 09:05:14;;;;;;;8.38;3.45;;;;;;;;;;5033414;28;20088;-68
2021/06/18 09:07:59;;;;;;;5.57;3.35;;;;;;;;;;5034143;28;20025;-69
2021/06/18 09:10:27;;;;;;;7.72;3.90;;;;;;;;;;5034087;28;20064;-70
2021/06/18 09:13:07;;;;;;;9.60;3.97;;;;;;;;;;5049307;28;20120;-68
2021/06/18 09:15:33;;;;;;;8.52;3.50;;;;;;;;;;5034001;28;20033;-70
2021/06/18 09:18:26;;;;;;;7.57;3.88;;;;;;;;;;5033754;28;20021;-70
2021/06/18 09:21:15;;;;;;;8.48;4.57;;;;;;;;;;4974508;28;20035;-70
2021/06/18 09:23:41;;;;;;;3.83;2.92;;;;;;;;;;4989031;28;20557;-72
2021/06/18 09:26:16;;;;;;;8.10;3.20;;;;;;;;;;4975053;28;20035;-71
2021/06/18 09:29:01;;;;;;;4.28;3.80;;;;;;;;;;4974120;28;20109;-71
2021/06/18 09:31:30;;;;;;;5.30;3.50;;;;;;;;;;4989423;28;20125;-69
2021/06/18 09:33:56;;;;;;;21.65;4.00;;;;;;;;;;4989282;28;20490;-70
2021/06/18 09:36:23;;;;;;;5.25;2.92;;;;;;;;;;4989543;28;20030;-71
2021/06/18 09:38:56;;;;;;;9.60;3.88;;;;;;;;;;4989524;28;20037;-70
2021/06/18 09:41:28;;;;;;;6.80;3.65;;;;;;;;;;4989142;28;20029;-70
2021/06/18 09:43:57;;;;;;;2.22;2.08;;;;;;;;;;4988399;28;20042;-71
2021/06/18 09:46:39;;;;;;;5.90;3.35;;;;;;;;;;4973782;28;20431;-71
2021/06/18 09:49:05;;;;;;;3.13;2.67;;;;;;;;;;4991582;28;20030;-71
2021/06/18 09:51:31;;;;;;;6.30;2.80;;;;;;;;;;4975274;28;20034;-68
2021/06/18 09:53:57;;;;;;;5.38;3.00;;;;;;;;;;4991641;28;20112;-71
2021/06/18 09:56:23;;;;;;;9.95;2.70;;;;;;;;;;4990965;28;20031;-67
2021/06/18 09:58:50;;;;;;;8.27;3.08;;;;;;;;;;5032675;28;20083;-68
2021/06/18 10:01:25;;;;;;;3.85;3.17;;;;;;;;;;5032885;28;20053;-69
2021/06/18 10:04:00;;;;;;;5.47;2.95;;;;;;;;;;5033000;28;20036;-68
2021/06/18 10:06:27;;;;;;;6.05;2.92;;;;;;;;;;5033116;28;20032;-67
2021/06/18 10:08:54;;;;;;;7.68;2.80;;;;;;;;;;5033031;28;20018;-68
2021/06/18 10:11:20;;;;;;;3.85;2.72;;;;;;;;;;5032872;28;20025;-69
2021/06/18 10:13:46;;;;;;;3.63;2.60;;;;;;;;;;5033098;28;20025;-69
2021/06/18 10:16:16;;;;;;;3.78;2.53;;;;;;;;;;5032082;28;20040;-69
2021/06/18 10:18:42;;;;;;;4.25;2.58;;;;;;;;;;5047424;28;20029;-70
2021/06/18 10:21:09;;;;;;;3.65;2.88;;;;;;;;;;5047611;28;20099;-70
2021/06/18 10:23:35;;;;;;;4.13;2.60;;;;;;;;;;5032652;28;20385;-68
2021/06/18 10:26:04;;;;;;;5.20;2.95;;;;;;;;;;5048277;28;20370;-68
2021/06/18 10:28:33;;;;;;;13.32;3.20;;;;;;;;;;5032955;28;20036;-66
2021/06/18 10:31:03;;;;;;;3.55;2.30;;;;;;;;;;5048078;28;20469;-69
2021/06/18 10:33:34;;;;;;;2.43;2.27;;;;;;;;;;5038361;28;20101;-67
2021/06/18 10:36:08;;;;;;;5.55;2.78;;;;;;;;;;5020765;28;20266;-67
2021/06/18 10:38:36;;;;;;;6.80;2.55;;;;;;;;;;5031270;28;20030;-66
2021/06/18 10:41:04;;;;;;;4.22;2.40;;;;;;;;;;5048168;28;20028;-65
2021/06/18 10:43:40;;;;;;;3.10;2.50;;;;;;;;;;5032329;28;20171;-67
2021/06/18 10:46:07;;;;;;;2.42;2.22;;;;;;;;;;5032898;28;20099;-66
2021/06/18 10:48:53;;;;;;;4.53;2.55;;;;;;;;;;5032756;28;20064;-68
2021/06/18 10:51:29;;;;;;;4.80;2.42;;;;;;;;;;5048029;28;20465;-70
2021/06/18 10:54:01;;;;;;;5.47;2.05;;;;;;;;;;5032735;28;20033;-68
2021/06/18 10:56:46;;;;;;;7.10;2.45;;;;;;;;;;5032656;28;20020;-67
2021/06/18 10:59:13;;;;;;;2.25;2.15;;;;;;;;;;5019349;28;20076;-67
2021/06/18 11:01:40;;;;;;;3.53;2.42;;;;;;;;;;5010510;28;20046;-71
2021/06/18 11:04:09;;;;;;;3.67;2.20;;;;;;;;;;5010687;28;20041;-69
2021/06/18 11:06:48;;;;;;;3.95;2.55;;;;;;;;;;5011904;28;20022;-69
2021/06/18 11:09:33;;;;;;;2.67;2.30;;;;;;;;;;5016903;28;20029;-66
2021/06/18 11:12:19;;;;;;;4.32;2.67;;;;;;;;;;5015312;28;20060;-67
2021/06/18 11:14:45;;;;;;;3.55;2.70;;;;;;;;;;5015146;28;20025;-68
2021/06/18 11:17:30;;;;;;;5.60;2.38;;;;;;;;;;5015284;28;20105;-67
2021/06/18 11:19:56;;;;;;;2.90;2.40;;;;;;;;;;5016410;28;20109;-69
2021/06/18 11:22:36;;;;;;;5.93;2.50;;;;;;;;;;5014922;28;20113;-67
2021/06/18 11:25:03;;;;;;;6.60;2.38;;;;;;;;;;5016548;28;20625;-68
2021/06/18 11:27:31;;;;;;;3.65;2.67;;;;;;;;;;5015110;28;20501;-69
2021/06/18 11:30:15;;;;;;;3.40;2.58;;;;;;;;;;5016296;28;20148;-68
2021/06/18 11:32:42;;;;;;;5.78;2.75;;;;;;;;;;5016252;28;20053;-69
2021/06/18 11:35:27;;;;;;;6.60;2.92;;;;;;;;;;5021877;28;20477;-67
2021/06/18 11:37:54;;;;;;;6.97;2.85;;;;;;;;;;5035827;28;20830;-68
2021/06/18 11:40:23;;;;;;;3.70;2.70;;;;;;;;;;5034520;28;20116;-69
2021/06/18 11:42:50;;;;;;;2.60;2.47;;;;;;;;;;5035776;28;20037;-67
2021/06/18 11:45:17;;;;;;;3.50;2.63;;;;;;;;;;5034169;28;20053;-68
2021/06/18 11:47:43;;;;;;;3.60;2.58;;;;;;;;;;5050213;28;20030;-70
2021/06/18 11:50:10;;;;;;;3.55;3.17;;;;;;;;;;5050432;28;20030;-67
2021/06/18 11:52:37;;;;;;;6.30;2.90;;;;;;;;;;5050949;28;20037;-71
2021/06/18 11:55:04;;;;;;;8.00;3.17;;;;;;;;;;5035679;28;20555;-69
2021/06/18 11:57:37;;;;;;;2.50;2.30;;;;;;;;;;5035516;28;20026;-69
2021/06/18 12:00:04;;;;;;;4.28;2.63;;;;;;;;;;5035560;28;20037;-70
2021/06/18 12:02:32;;;;;;;4.85;2.72;;;;;;;;;;5050186;28;20053;-69
2021/06/18 12:05:04;;;;;;;2.65;2.42;;;;;;;;;;5034690;28;20025;-68
2021/06/18 12:07:31;;;;;;;5.50;3.00;;;;;;;;;;5034278;28;20102;-69
2021/06/18 12:09:57;;;;;;;5.47;2.60;;;;;;;;;;5035326;28;20021;-71
2021/06/18 12:12:23;;;;;;;2.83;2.63;;;;;;;;;;5049161;28;20076;-72
2021/06/18 12:14:55;;;;;;;5.60;2.38;;;;;;;;;;5049013;28;20477;-70
2021/06/18 12:17:22;;;;;;;6.13;3.42;;;;;;;;;;5035259;28;20048;-70
2021/06/18 12:19:52;;;;;;;5.13;3.13;;;;;;;;;;5034588;28;20026;-70
2021/06/18 12:22:23;;;;;;;6.53;3.30;;;;;;;;;;5035141;28;20033;-70
2021/06/18 12:24:50;;;;;;;;;;;;;;;;;;5035553;28;20516;-67
2021/06/18 12:27:19;;;;;;;4.63;2.83;;;;;;;;;;5033836;28;19905;-68
2021/06/18 12:29:48;;;;;;;5.90;2.97;;;;;;;;;;5035042;28;20020;-67
2021/06/18 12:32:15;;;;;;;4.85;2.97;;;;;;;;;;5035003;28;20025;-68
2021/06/18 12:34:47;;;;;;;3.92;2.75;;;;;;;;;;5050176;28;20033;-67
2021/06/18 12:37:14;;;;;;;5.93;2.65;;;;;;;;;;5034989;28;20141;-70
2021/06/18 12:40:00;;;;;;;4.72;2.75;;;;;;;;;;5034898;28;20460;-69
2021/06/18 12:42:26;;;;;;;7.05;2.88;;;;;;;;;;5034726;28;20103;-70
2021/06/18 12:45:13;;;;;;;3.95;2.47;;;;;;;;;;5033315;28;20061;-69
2021/06/18 12:47:40;;;;;;;3.13;2.83;;;;;;;;;;5049967;28;20021;-67
2021/06/18 12:50:25;;;;;;;3.33;2.40;;;;;;;;;;5034623;28;20096;-71
2021/06/18 12:52:52;;;;;;;5.38;2.65;;;;;;;;;;5034599;28;20095;-70
2021/06/18 12:55:26;;;;;;;3.80;2.95;;;;;;;;;;5049770;28;20030;-70
2021/06/18 12:58:22;;;;;;;5.03;2.50;;;43.90;47.20;;;;;;5034483;28;20021;-70
2021/06/18 13:00:56;;;;;;;3.00;2.47;;;44.60;47.50;;;;;;5007054;28;20046;-72
2021/06/18 13:03:36;;;;;;;5.60;2.63;;;44.60;48.20;;;;;;5014607;28;20038;-71
2021/06/18 13:06:04;;;;;;;3.70;2.60;;;44.60;54.80;;;;;;5014523;28;20042;-71
2021/06/18 13:08:31;;;;;;;2.55;2.35;;;44.80;62.40;;;;;;5012884;28;20037;-72
2021/06/18 13:10:57;;;;;;;4.38;2.20;;;45.50;44.70;;;;;;5014492;28;20525;-70
2021/06/18 13:13:28;;;;;;;3.53;2.45;;;;;;;;;;5014277;28;20026;-69
2021/06/18 13:16:12;;;;;;;4.38;2.40;;;45.40;44.60;;;;;;5014462;28;20446;-72
2021/06/18 13:18:52;;;;;;;2.53;2.17;;;;;;;;;;5014412;28;20061;-72
2021/06/18 13:21:18;;;;;;;3.13;2.30;;;;;;;;;;5014615;28;20108;-73
2021/06/18 13:23:44;;;;;;;4.95;2.38;;;44.30;43.50;;;;;;5012878;28;20033;-72
2021/06/18 13:26:13;;;;;;;5.90;2.88;;;43.90;44.50;;;;;;5014535;28;20038;-74
2021/06/18 13:28:39;;;;;;;3.85;2.78;;;44.50;45.20;;;;;;5012853;28;20026;-73
2021/06/18 13:31:08;;;;;;;7.20;2.45;;;44.20;46.60;;;;;;5011652;28;20120;-72
2021/06/18 13:33:37;;;;;;;3.42;2.53;;;;;;;;;;5014190;28;20029;-74
2021/06/18 13:36:03;;;;;;;3.10;2.80;;;;;;;;;;5012401;28;20026;-74
2021/06/18 13:38:29;;;;;;;5.40;2.88;;;39.50;51.40;;;;;;5014038;28;20044;-72
2021/06/18 13:40:55;;;;;;;4.93;2.63;;;;;;;;;;5012599;28;20462;-71
2021/06/18 13:43:21;;;;;;;3.60;2.67;;;41.00;49.60;;;;;;5012542;28;20061;-71
2021/06/18 13:45:47;;;;;;;5.78;2.75;;;42.30;48.50;;;;;;5013876;28;20057;-72
2021/06/18 13:48:13;;;;;;;2.60;2.30;;;42.50;76.80;;;;;;5012541;28;20061;-71
2021/06/18 13:50:45;;;;;;;6.13;2.10;;;41.60;56.60;;;;;;5013823;28;20026;-72
2021/06/18 13:53:11;;;;;;;2.83;2.30;;;42.00;48.40;;;;;;5013726;28;20149;-69
2021/06/18 13:55:37;;;;;;;2.83;2.20;;;41.90;48.70;;;;;;5013696;28;20485;-66
2021/06/18 13:58:03;;;;;;;3.60;2.30;;;41.50;73.60;;;;;;5012465;28;20034;-66
2021/06/18 14:00:30;;;;;;;5.65;2.50;;;;;;;;;;5013064;28;20057;-66
2021/06/18 14:02:58;;;;;;;2.40;2.25;;;40.70;48.90;;;;;;5013152;28;20026;-67
2021/06/18 14:05:24;;;;;;;3.00;2.70;;;;;;;;;;5013009;28;20113;-67
2021/06/18 14:07:50;;;;;;;5.82;2.40;;;;;;;;;;5012956;28;20026;-68
2021/06/18 14:10:17;;;;;;;6.72;2.30;;;43.90;70.00;;;;;;5013313;28;20026;-71
2021/06/18 14:12:43;;;;;;;3.53;2.30;;;;;;;;;;5012151;28;20041;-68
2021/06/18 14:15:17;;;;;;;7.30;2.65;;;45.50;44.50;;;;;;5013145;28;20374;-69
2021/06/18 14:17:43;;;;;;;4.15;2.58;;;;;;;;;;5013477;28;20084;-68
2021/06/18 14:20:10;;;;;;;2.47;2.00;;;46.20;42.50;;;;;;5013445;28;20022;-70
2021/06/18 14:22:35;;;;;;;2.53;1.92;;;46.80;41.80;;;;;;5013273;28;20029;-69
2021/06/18 14:25:03;;;;;;;2.60;1.85;;;46.80;42.50;;;;;;5013404;28;20041;-69
2021/06/18 14:27:29;;;;;;;7.40;1.88;;;46.50;40.60;;;;;;5012033;28;20061;-71
2021/06/18 14:29:55;;;;;;;4.20;2.10;;;46.70;41.80;;;;;;5013316;28;20053;-71
2021/06/18 14:32:21;;;;;;;3.38;2.05;;;47.10;41.50;;;;;;5012003;28;20026;-68
2021/06/18 14:34:47;;;;;;;1.77;1.55;;;47.00;42.10;;;;;;5013353;28;20066;-72
2021/06/18 14:37:13;;;;;;;1.80;1.70;;;46.00;39.80;;;;;;5013259;28;20030;-71